Time,TemperatureF,DewpointF,PressureIn,WindDirection,WindDirectionDegrees,WindSpeedMPH,WindSpeedGustMPH,Humidity,HourlyPrecipIn,Conditions,Clouds,dailyrainin,SoftwareType,DateUTC
2013-03-20 00:02:00,12.2,-7.6,31.83,SW,225,0.0,0.0,40,0.00,,,0.00,meteohub,2013-03-20 06:02:00,
2013-03-20 00:07:00,12.2,-7.6,31.83,SW,225,0.0,0.0,40,0.00,,,0.00,meteohub,2013-03-20 06:07:00,
2013-03-20 00:12:00,12.0,-6.7,31.83,SE,135,0.0,0.0,42,0.00,,,0.00,meteohub,2013-03-20 06:12:00,
2013-03-20 00:17:00,11.8,-6.3,31.83,North,0,0.0,0.0,43,0.00,,,0.00,meteohub,2013-03-20 06:17:00,
2013-03-20 00:22:00,11.7,-7.1,31.82,SW,225,0.0,0.0,42,0.00,,,0.00,meteohub,2013-03-20 06:22:00,
2013-03-20 00:27:00,11.5,-7.2,31.83,SW,225,0.0,0.0,42,0.00,,,0.00,meteohub,2013-03-20 06:27:00,
2013-03-20 00:33:00,11.5,-7.2,31.83,SW,225,0.0,0.0,42,0.00,,,0.00,meteohub,2013-03-20 06:33:00,
2013-03-20 00:38:00,11.3,-6.0,31.83,SW,225,0.0,0.0,45,0.00,,,0.00,meteohub,2013-03-20 06:38:00,
2013-03-20 00:44:00,10.9,-6.2,31.82,South,180,0.0,0.0,45,0.00,,,0.00,meteohub,2013-03-20 06:44:00,
2013-03-20 00:49:00,10.8,-6.3,31.82,South,180,0.0,0.0,45,0.00,,,0.00,meteohub,2013-03-20 06:49:00,
2013-03-20 00:54:00,10.4,-6.7,31.82,South,180,0.0,0.0,45,0.00,,,0.00,meteohub,2013-03-20 06:54:00,
2013-03-20 01:00:00,10.2,-8.9,31.81,South,180,0.0,0.0,41,0.00,,,0.00,meteohub,2013-03-20 07:00:00,
2013-03-20 01:05:00,10.0,-9.0,31.81,South,180,0.0,0.0,41,0.00,,,0.00,meteohub,2013-03-20 07:05:00,
2013-03-20 01:10:00,10.0,-9.9,31.81,South,180,0.0,0.0,39,0.00,,,0.00,meteohub,2013-03-20 07:10:00,
2013-03-20 01:15:00,10.0,-11.0,31.81,West,270,0.0,0.0,37,0.00,,,0.00,meteohub,2013-03-20 07:15:00,
2013-03-20 01:21:00,9.9,-11.2,31.81,South,180,0.0,0.0,37,0.00,,,0.00,meteohub,2013-03-20 07:21:00,
2013-03-20 01:27:00,9.7,-10.8,31.81,West,270,0.0,0.0,38,0.00,,,0.00,meteohub,2013-03-20 07:27:00,
2013-03-20 01:32:00,9.5,-9.4,31.81,South,180,0.0,0.0,41,0.00,,,0.00,meteohub,2013-03-20 07:32:00,
2013-03-20 01:37:00,9.3,-9.6,31.81,West,270,0.0,0.0,41,0.00,,,0.00,meteohub,2013-03-20 07:37:00,
2013-03-20 01:42:00,9.1,-9.8,31.81,West,270,0.0,0.0,41,0.00,,,0.00,meteohub,2013-03-20 07:42:00,
2013-03-20 01:47:00,9.0,-9.9,31.81,SW,225,0.0,0.0,41,0.00,,,0.00,meteohub,2013-03-20 07:47:00,
2013-03-20 01:52:00,9.0,-9.9,31.81,SW,225,0.0,0.0,41,0.00,,,0.00,meteohub,2013-03-20 07:52:00,
2013-03-20 01:57:00,8.8,-10.1,31.81,South,180,0.0,0.0,41,0.00,,,0.00,meteohub,2013-03-20 07:57:00,
2013-03-20 02:02:00,8.8,-9.6,31.81,SW,225,0.0,0.0,42,0.00,,,0.00,meteohub,2013-03-20 08:02:00,
2013-03-20 02:07:00,8.8,-9.6,31.81,SW,225,0.0,0.0,42,0.00,,,0.00,meteohub,2013-03-20 08:07:00,
2013-03-20 02:12:00,8.6,-10.3,31.81,West,270,0.0,0.0,41,0.00,,,0.00,meteohub,2013-03-20 08:12:00,
2013-03-20 02:17:00,8.6,-10.3,31.81,SW,225,0.0,0.0,41,0.00,,,0.00,meteohub,2013-03-20 08:17:00,
2013-03-20 02:22:00,8.6,-10.8,31.81,West,270,0.0,0.0,40,0.00,,,0.00,meteohub,2013-03-20 08:22:00,
2013-03-20 02:28:00,8.4,-9.9,31.80,SW,225,0.0,0.0,42,0.00,,,0.00,meteohub,2013-03-20 08:28:00,
2013-03-20 02:33:00,8.1,-10.3,31.80,West,270,0.0,0.0,42,0.00,,,0.00,meteohub,2013-03-20 08:33:00,
2013-03-20 02:39:00,8.1,-10.3,31.80,SW,225,0.0,0.0,42,0.00,,,0.00,meteohub,2013-03-20 08:39:00,
2013-03-20 02:45:00,7.7,-10.7,31.80,NW,315,0.0,0.0,42,0.00,,,0.00,meteohub,2013-03-20 08:45:00,
2013-03-20 02:50:00,7.5,-10.8,31.80,South,180,0.0,0.0,42,0.00,,,0.00,meteohub,2013-03-20 08:50:00,
2013-03-20 02:56:00,7.3,-11.0,31.80,SW,225,0.0,0.0,42,0.00,,,0.00,meteohub,2013-03-20 08:56:00,
2013-03-20 03:01:00,7.3,-10.5,31.80,West,270,0.0,0.0,43,0.00,,,0.00,meteohub,2013-03-20 09:01:00,
2013-03-20 03:07:00,7.3,-10.5,31.80,South,180,0.0,0.0,43,0.00,,,0.00,meteohub,2013-03-20 09:07:00,
2013-03-20 03:12:00,7.3,-10.5,31.80,South,180,0.0,0.0,43,0.00,,,0.00,meteohub,2013-03-20 09:12:00,
2013-03-20 03:17:00,7.2,-10.7,31.80,South,180,0.0,0.0,43,0.00,,,0.00,meteohub,2013-03-20 09:17:00,
2013-03-20 03:22:00,7.0,-10.3,31.79,SW,225,0.0,0.0,44,0.00,,,0.00,meteohub,2013-03-20 09:22:00,
2013-03-20 03:27:00,6.8,-10.5,31.80,SW,225,0.0,0.0,44,0.00,,,0.00,meteohub,2013-03-20 09:27:00,
2013-03-20 03:32:00,6.6,-10.3,31.80,South,180,0.0,0.0,45,0.00,,,0.00,meteohub,2013-03-20 09:32:00,
2013-03-20 03:38:00,6.6,-10.7,31.79,South,180,0.0,0.0,44,0.00,,,0.00,meteohub,2013-03-20 09:38:00,
2013-03-20 03:43:00,6.8,-11.0,31.79,NW,315,0.0,0.0,43,0.00,,,0.00,meteohub,2013-03-20 09:43:00,
2013-03-20 03:48:00,6.8,-11.0,31.79,SW,225,0.0,0.0,43,0.00,,,0.00,meteohub,2013-03-20 09:48:00,
2013-03-20 03:53:00,7.0,-10.8,31.79,SW,225,0.0,0.0,43,0.00,,,0.00,meteohub,2013-03-20 09:53:00,
2013-03-20 03:59:00,7.0,-11.2,31.79,SW,225,0.0,0.0,42,0.00,,,0.00,meteohub,2013-03-20 09:59:00,
2013-03-20 04:05:00,7.0,-11.2,31.79,SW,225,0.0,0.0,42,0.00,,,0.00,meteohub,2013-03-20 10:05:00,
2013-03-20 04:10:00,7.0,-10.8,31.78,North,0,0.0,0.0,43,0.00,,,0.00,meteohub,2013-03-20 10:10:00,
2013-03-20 04:16:00,7.0,-10.8,31.79,SE,135,0.0,0.0,43,0.00,,,0.00,meteohub,2013-03-20 10:16:00,
2013-03-20 04:21:00,6.6,-10.7,31.78,WNW,293,0.0,0.0,44,0.00,,,0.00,meteohub,2013-03-20 10:21:00,
2013-03-20 04:27:00,6.4,-10.8,31.78,South,180,0.0,0.0,44,0.00,,,0.00,meteohub,2013-03-20 10:27:00,
2013-03-20 04:32:00,6.3,-11.0,31.78,South,180,0.0,0.0,44,0.00,,,0.00,meteohub,2013-03-20 10:32:00,
2013-03-20 04:37:00,6.3,-10.5,31.79,SW,225,0.0,0.0,45,0.00,,,0.00,meteohub,2013-03-20 10:37:00,
2013-03-20 04:42:00,6.3,-10.5,31.78,SW,225,0.0,0.0,45,0.00,,,0.00,meteohub,2013-03-20 10:42:00,
2013-03-20 04:48:00,6.3,-11.0,31.78,SW,225,0.0,0.0,44,0.00,,,0.00,meteohub,2013-03-20 10:48:00,
2013-03-20 04:54:00,6.6,-10.7,31.78,SW,225,0.0,0.0,44,0.00,,,0.00,meteohub,2013-03-20 10:54:00,
2013-03-20 04:59:00,6.8,-11.0,31.78,South,180,0.0,0.0,43,0.00,,,0.00,meteohub,2013-03-20 10:59:00,
2013-03-20 05:05:00,6.8,-11.0,31.78,SW,225,0.0,0.0,43,0.00,,,0.00,meteohub,2013-03-20 11:05:00,
2013-03-20 05:11:00,6.8,-11.0,31.78,WSW,248,0.0,0.0,43,0.00,,,0.00,meteohub,2013-03-20 11:11:00,
2013-03-20 05:17:00,7.2,-11.2,31.78,South,180,0.0,0.0,42,0.00,,,0.00,meteohub,2013-03-20 11:17:00,
2013-03-20 05:22:00,7.2,-11.2,31.78,SW,225,0.0,0.0,42,0.00,,,0.00,meteohub,2013-03-20 11:22:00,
2013-03-20 05:27:00,7.2,-11.2,31.78,South,180,0.0,0.0,42,0.00,,,0.00,meteohub,2013-03-20 11:27:00,
2013-03-20 05:33:00,7.0,-11.2,31.78,West,270,0.0,0.0,42,0.00,,,0.00,meteohub,2013-03-20 11:33:00,
2013-03-20 05:38:00,7.0,-10.8,31.78,SW,225,0.0,0.0,43,0.00,,,0.00,meteohub,2013-03-20 11:38:00,
2013-03-20 05:44:00,7.0,-11.2,31.78,NE,45,0.0,0.0,42,0.00,,,0.00,meteohub,2013-03-20 11:44:00,
2013-03-20 05:49:00,7.0,-11.2,31.78,NW,315,0.0,0.0,42,0.00,,,0.00,meteohub,2013-03-20 11:49:00,
2013-03-20 05:55:00,7.2,-11.2,31.78,SW,225,0.0,0.0,42,0.00,,,0.00,meteohub,2013-03-20 11:55:00,
2013-03-20 06:01:00,7.2,-11.2,31.78,SW,225,0.0,0.0,42,0.00,,,0.00,meteohub,2013-03-20 12:01:00,
2013-03-20 06:07:00,7.2,-11.2,31.78,SW,225,0.0,0.0,42,0.00,,,0.00,meteohub,2013-03-20 12:07:00,
2013-03-20 06:12:00,7.5,-10.8,31.78,SW,225,0.0,0.0,42,0.00,,,0.00,meteohub,2013-03-20 12:12:00,
2013-03-20 06:17:00,7.3,-11.4,31.78,South,180,0.0,0.0,41,0.00,,,0.00,meteohub,2013-03-20 12:17:00,
2013-03-20 06:22:00,7.5,-10.8,31.78,West,270,0.0,0.0,42,0.00,,,0.00,meteohub,2013-03-20 12:22:00,
2013-03-20 06:27:00,7.7,-11.0,31.78,South,180,0.0,0.0,41,0.00,,,0.00,meteohub,2013-03-20 12:27:00,
2013-03-20 06:33:00,7.5,-11.2,31.77,SE,135,0.0,0.0,41,0.00,,,0.00,meteohub,2013-03-20 12:33:00,
2013-03-20 06:38:00,7.2,-12.1,31.77,SW,225,0.0,2.0,40,0.00,,,0.00,meteohub,2013-03-20 12:38:00,
2013-03-20 06:44:00,6.6,-12.1,31.77,South,180,0.0,2.0,41,0.00,,,0.00,meteohub,2013-03-20 12:44:00,
2013-03-20 06:49:00,6.4,-12.3,31.77,NE,45,0.0,2.0,41,0.00,,,0.00,meteohub,2013-03-20 12:49:00,
2013-03-20 06:54:00,6.3,-12.5,31.77,SW,225,0.0,1.0,41,0.00,,,0.00,meteohub,2013-03-20 12:54:00,
2013-03-20 07:00:00,6.1,-11.6,31.77,South,180,0.0,0.0,43,0.00,,,0.00,meteohub,2013-03-20 13:00:00,
2013-03-20 07:06:00,6.1,-11.6,31.77,North,0,0.0,0.0,43,0.00,,,0.00,meteohub,2013-03-20 13:06:00,
2013-03-20 07:11:00,5.9,-11.7,31.77,SW,225,0.0,0.0,43,0.00,,,0.00,meteohub,2013-03-20 13:11:00,
2013-03-20 07:17:00,5.7,-11.9,31.77,West,270,0.0,0.0,43,0.00,,,0.00,meteohub,2013-03-20 13:17:00,
2013-03-20 07:22:00,5.9,-11.4,31.77,East,90,0.0,0.0,44,0.00,,,0.00,meteohub,2013-03-20 13:22:00,
2013-03-20 07:27:00,5.7,-11.6,31.76,East,90,0.0,0.0,44,0.00,,,0.00,meteohub,2013-03-20 13:27:00,
2013-03-20 07:32:00,5.7,-11.6,31.77,North,0,0.0,0.0,44,0.00,,,0.00,meteohub,2013-03-20 13:32:00,
2013-03-20 07:37:00,6.1,-11.2,31.77,NW,315,0.0,0.0,44,0.00,,,0.00,meteohub,2013-03-20 13:37:00,
2013-03-20 07:43:00,6.3,-10.5,31.77,South,180,0.0,0.0,45,0.00,,,0.00,meteohub,2013-03-20 13:43:00,
2013-03-20 07:49:00,7.0,-10.8,31.77,SSE,158,0.0,0.0,43,0.00,,,0.00,meteohub,2013-03-20 13:49:00,
2013-03-20 07:54:00,7.9,-9.9,31.77,NW,315,0.0,0.0,43,0.00,,,0.00,meteohub,2013-03-20 13:54:00,
2013-03-20 07:59:00,9.3,-9.6,31.77,West,270,0.0,0.0,41,0.00,,,0.00,meteohub,2013-03-20 13:59:00,
2013-03-20 08:05:00,9.3,-9.6,31.76,West,270,0.0,0.0,41,0.00,,,0.00,meteohub,2013-03-20 14:05:00,
2013-03-20 08:10:00,12.0,-8.1,31.77,SW,225,0.0,0.0,39,0.00,,,0.00,meteohub,2013-03-20 14:10:00,
2013-03-20 08:16:00,12.9,-9.0,31.76,North,0,0.0,0.0,36,0.00,,,0.00,meteohub,2013-03-20 14:16:00,
2013-03-20 08:21:00,13.8,-8.9,31.76,North,0,0.0,0.0,35,0.00,,,0.00,meteohub,2013-03-20 14:21:00,
2013-03-20 08:27:00,14.7,-9.2,31.76,SE,135,0.0,2.0,33,0.00,,,0.00,meteohub,2013-03-20 14:27:00,
2013-03-20 08:32:00,15.4,-9.2,31.76,North,0,0.0,2.0,32,0.00,,,0.00,meteohub,2013-03-20 14:32:00,
2013-03-20 08:38:00,16.2,-9.8,31.75,West,270,1.0,2.0,30,0.00,,,0.00,meteohub,2013-03-20 14:38:00,
2013-03-20 08:44:00,17.1,-9.8,31.75,North,0,0.0,3.0,29,0.00,,,0.00,meteohub,2013-03-20 14:44:00,
2013-03-20 08:49:00,18.1,-10.3,31.74,North,0,0.0,3.0,27,0.00,,,0.00,meteohub,2013-03-20 14:49:00,
2013-03-20 08:55:00,20.1,-5.6,31.75,SE,135,0.0,4.0,31,0.00,,,0.00,meteohub,2013-03-20 14:55:00,
2013-03-20 09:01:00,21.9,-4.7,31.75,North,0,2.0,4.0,30,0.00,,,0.00,meteohub,2013-03-20 15:01:00,
2013-03-20 09:06:00,22.6,-5.6,31.74,NW,315,0.0,2.0,28,0.00,,,0.00,meteohub,2013-03-20 15:06:00,
2013-03-20 09:12:00,23.5,-5.6,31.74,NE,45,0.0,3.0,27,0.00,,,0.00,meteohub,2013-03-20 15:12:00,
2013-03-20 09:17:00,24.3,-5.6,31.74,West,270,2.0,3.0,26,0.00,,,0.00,meteohub,2013-03-20 15:17:00,
2013-03-20 09:22:00,25.3,-5.6,31.74,NE,45,0.0,3.0,25,0.00,,,0.00,meteohub,2013-03-20 15:22:00,
2013-03-20 09:27:00,27.0,-5.1,31.74,NE,45,2.0,2.0,24,0.00,,,0.00,meteohub,2013-03-20 15:27:00,
2013-03-20 09:32:00,28.6,-0.4,31.74,SW,225,2.0,2.0,28,0.00,,,0.00,meteohub,2013-03-20 15:32:00,
2013-03-20 09:37:00,29.5,0.3,31.73,SW,225,0.0,2.0,28,0.00,,,0.00,meteohub,2013-03-20 15:37:00,
2013-03-20 09:42:00,30.4,-0.4,31.74,North,0,0.0,2.0,26,0.00,,,0.00,meteohub,2013-03-20 15:42:00,
2013-03-20 09:47:00,31.5,0.5,31.73,NE,45,0.0,2.0,26,0.00,,,0.00,meteohub,2013-03-20 15:47:00,
2013-03-20 09:52:00,32.4,0.5,31.73,East,90,0.0,3.0,25,0.00,,,0.00,meteohub,2013-03-20 15:52:00,
2013-03-20 09:57:00,34.2,0.1,31.73,SE,135,0.0,3.0,23,0.00,,,0.00,meteohub,2013-03-20 15:57:00,
2013-03-20 10:02:00,34.9,0.9,31.73,NE,45,0.0,3.0,23,0.00,,,0.00,meteohub,2013-03-20 16:02:00,
2013-03-20 10:07:00,35.6,0.5,31.72,NE,45,3.0,3.0,22,0.00,,,0.00,meteohub,2013-03-20 16:07:00,
2013-03-20 10:13:00,36.1,0.9,31.72,NW,315,3.0,3.0,22,0.00,,,0.00,meteohub,2013-03-20 16:13:00,
2013-03-20 10:19:00,37.4,5.5,31.72,SE,135,0.0,4.0,26,0.00,,,0.00,meteohub,2013-03-20 16:19:00,
2013-03-20 10:24:00,38.8,6.8,31.71,NE,45,0.0,4.0,26,0.00,,,0.00,meteohub,2013-03-20 16:24:00,
2013-03-20 10:30:00,39.2,6.3,31.71,NE,45,2.0,3.0,25,0.00,,,0.00,meteohub,2013-03-20 16:30:00,
2013-03-20 10:35:00,39.9,7.0,31.71,NE,45,2.0,2.0,25,0.00,,,0.00,meteohub,2013-03-20 16:35:00,
2013-03-20 10:41:00,41.0,7.0,31.71,NE,45,3.0,5.0,24,0.00,,,0.00,meteohub,2013-03-20 16:41:00,
2013-03-20 10:46:00,41.0,7.0,31.71,North,0,4.0,8.0,24,0.00,,,0.00,meteohub,2013-03-20 16:46:00,
2013-03-20 10:52:00,40.5,7.3,31.71,NE,45,2.0,8.0,25,0.00,,,0.00,meteohub,2013-03-20 16:52:00,
2013-03-20 10:57:00,41.4,7.3,31.70,East,90,4.0,8.0,24,0.00,,,0.00,meteohub,2013-03-20 16:57:00,
2013-03-20 11:03:00,41.0,7.0,31.70,East,90,2.0,8.0,24,0.00,,,0.00,meteohub,2013-03-20 17:03:00,
2013-03-20 11:08:00,41.0,7.0,31.70,North,0,4.0,8.0,24,0.00,,,0.00,meteohub,2013-03-20 17:08:00,
2013-03-20 11:14:00,42.1,7.9,31.70,North,0,2.0,8.0,24,0.00,,,0.00,meteohub,2013-03-20 17:14:00,
2013-03-20 11:19:00,43.3,8.1,31.70,SE,135,3.0,7.0,23,0.00,,,0.00,meteohub,2013-03-20 17:19:00,
2013-03-20 11:24:00,43.5,8.2,31.70,NE,45,4.0,5.0,23,0.00,,,0.00,meteohub,2013-03-20 17:24:00,
2013-03-20 11:30:00,44.1,8.6,31.70,SE,135,4.0,5.0,23,0.00,,,0.00,meteohub,2013-03-20 17:30:00,
2013-03-20 11:35:00,45.0,7.3,31.70,NE,45,5.0,5.0,21,0.00,,,0.00,meteohub,2013-03-20 17:35:00,
2013-03-20 11:40:00,44.4,7.9,31.69,West,270,4.0,5.0,22,0.00,,,0.00,meteohub,2013-03-20 17:40:00,
2013-03-20 11:46:00,44.1,7.7,31.69,NE,45,4.0,7.0,22,0.00,,,0.00,meteohub,2013-03-20 17:46:00,
2013-03-20 11:51:00,43.9,7.5,31.69,East,90,4.0,7.0,22,0.00,,,0.00,meteohub,2013-03-20 17:51:00,
2013-03-20 11:57:00,43.5,7.2,31.69,East,90,1.0,7.0,22,0.00,,,0.00,meteohub,2013-03-20 17:57:00,
2013-03-20 12:02:00,43.7,7.3,31.68,East,90,4.0,7.0,22,0.00,,,0.00,meteohub,2013-03-20 18:02:00,
2013-03-20 12:07:00,43.7,7.3,31.68,East,90,4.0,6.0,22,0.00,,,0.00,meteohub,2013-03-20 18:07:00,
2013-03-20 12:12:00,44.2,8.8,31.68,South,180,9.0,9.0,23,0.00,,,0.00,meteohub,2013-03-20 18:12:00,
2013-03-20 12:17:00,44.2,8.8,31.68,SE,135,6.0,10.0,23,0.00,,,0.00,meteohub,2013-03-20 18:17:00,
2013-03-20 12:22:00,44.4,9.0,31.68,SE,135,5.0,10.0,23,0.00,,,0.00,meteohub,2013-03-20 18:22:00,
2013-03-20 12:27:00,44.8,9.1,31.67,SSW,203,4.0,13.0,23,0.00,,,0.00,meteohub,2013-03-20 18:27:00,
2013-03-20 12:32:00,45.5,8.8,31.67,SE,135,8.0,13.0,22,0.00,,,0.00,meteohub,2013-03-20 18:32:00,
2013-03-20 12:37:00,45.5,9.9,31.67,South,180,11.0,11.0,23,0.00,,,0.00,meteohub,2013-03-20 18:37:00,
2013-03-20 12:42:00,45.0,8.4,31.67,SSW,203,7.0,11.0,22,0.00,,,0.00,meteohub,2013-03-20 18:42:00,
2013-03-20 12:47:00,45.1,9.5,31.67,SE,135,4.0,11.0,23,0.00,,,0.00,meteohub,2013-03-20 18:47:00,
2013-03-20 12:52:00,45.7,9.0,31.66,SSW,203,5.0,11.0,22,0.00,,,0.00,meteohub,2013-03-20 18:52:00,
2013-03-20 12:58:00,46.2,10.4,31.66,SSW,203,5.0,11.0,23,0.00,,,0.00,meteohub,2013-03-20 18:58:00,
2013-03-20 13:03:00,46.0,10.2,31.67,SE,135,8.0,8.0,23,0.00,,,0.00,meteohub,2013-03-20 19:03:00,
2013-03-20 13:09:00,45.7,10.0,31.66,South,180,11.0,13.0,23,0.00,,,0.00,meteohub,2013-03-20 19:09:00,
2013-03-20 13:15:00,43.9,10.4,31.66,NW,315,7.0,13.0,25,0.00,,,0.00,meteohub,2013-03-20 19:15:00,
2013-03-20 13:20:00,43.7,10.2,31.67,SW,225,6.0,15.0,25,0.00,,,0.00,meteohub,2013-03-20 19:20:00,
2013-03-20 13:25:00,43.3,9.9,31.66,West,270,4.0,15.0,25,0.00,,,0.00,meteohub,2013-03-20 19:25:00,
2013-03-20 13:31:00,43.0,10.4,31.66,NW,315,3.0,9.0,26,0.00,,,0.00,meteohub,2013-03-20 19:31:00,
2013-03-20 13:37:00,43.0,12.0,31.66,NW,315,6.0,9.0,28,0.00,,,0.00,meteohub,2013-03-20 19:37:00,
2013-03-20 13:42:00,42.8,11.1,31.66,ENE,68,2.0,7.0,27,0.00,,,0.00,meteohub,2013-03-20 19:42:00,
2013-03-20 13:47:00,42.6,12.6,31.65,SW,225,8.0,8.0,29,0.00,,,0.00,meteohub,2013-03-20 19:47:00,
2013-03-20 13:52:00,42.1,12.9,31.65,NE,45,8.0,9.0,30,0.00,,,0.00,meteohub,2013-03-20 19:52:00,
2013-03-20 13:58:00,42.1,12.9,31.65,NE,45,4.0,9.0,30,0.00,,,0.00,meteohub,2013-03-20 19:58:00,
2013-03-20 14:03:00,42.1,13.6,31.65,East,90,5.0,9.0,31,0.00,,,0.00,meteohub,2013-03-20 20:03:00,
2013-03-20 14:08:00,41.9,15.6,31.65,ENE,68,2.0,8.0,34,0.00,,,0.00,meteohub,2013-03-20 20:08:00,
2013-03-20 14:14:00,41.7,16.2,31.65,NW,315,7.0,7.0,35,0.00,,,0.00,meteohub,2013-03-20 20:14:00,
2013-03-20 14:19:00,41.4,15.8,31.65,East,90,4.0,7.0,35,0.00,,,0.00,meteohub,2013-03-20 20:19:00,
2013-03-20 14:24:00,40.8,16.5,31.65,West,270,6.0,7.0,37,0.00,,,0.00,meteohub,2013-03-20 20:24:00,
2013-03-20 14:30:00,40.6,16.3,31.64,SE,135,3.0,9.0,37,0.00,,,0.00,meteohub,2013-03-20 20:30:00,
2013-03-20 14:36:00,41.4,16.3,31.64,East,90,6.0,10.0,36,0.00,,,0.00,meteohub,2013-03-20 20:36:00,
2013-03-20 14:41:00,41.4,15.8,31.64,NE,45,4.0,10.0,35,0.00,,,0.00,meteohub,2013-03-20 20:41:00,
2013-03-20 14:46:00,40.6,15.1,31.64,SW,225,8.0,8.0,35,0.00,,,0.00,meteohub,2013-03-20 20:46:00,
2013-03-20 14:51:00,40.5,16.2,31.65,West,270,4.0,9.0,37,0.00,,,0.00,meteohub,2013-03-20 20:51:00,
2013-03-20 14:56:00,40.5,16.2,31.65,SW,225,2.0,9.0,37,0.00,,,0.00,meteohub,2013-03-20 20:56:00,
2013-03-20 15:01:00,40.5,15.6,31.64,NW,315,4.0,9.0,36,0.00,,,0.00,meteohub,2013-03-20 21:01:00,
2013-03-20 15:07:00,40.5,17.4,31.64,East,90,5.0,5.0,39,0.00,,,0.00,meteohub,2013-03-20 21:07:00,
2013-03-20 15:12:00,40.3,18.0,31.64,West,270,3.0,5.0,40,0.00,,,0.00,meteohub,2013-03-20 21:12:00,
2013-03-20 15:17:00,39.9,18.1,31.64,SW,225,2.0,5.0,41,0.00,,,0.00,meteohub,2013-03-20 21:17:00,
2013-03-20 15:23:00,39.7,17.4,31.64,NE,45,2.0,6.0,40,0.00,,,0.00,meteohub,2013-03-20 21:23:00,
2013-03-20 15:29:00,39.4,17.6,31.64,East,90,4.0,6.0,41,0.00,,,0.00,meteohub,2013-03-20 21:29:00,
2013-03-20 15:34:00,39.4,17.6,31.64,NW,315,1.0,4.0,41,0.00,,,0.00,meteohub,2013-03-20 21:34:00,
2013-03-20 15:40:00,39.9,18.7,31.64,SE,135,4.0,4.0,42,0.00,,,0.00,meteohub,2013-03-20 21:40:00,
2013-03-20 15:45:00,39.7,19.6,31.64,SW,225,3.0,4.0,44,0.00,,,0.00,meteohub,2013-03-20 21:45:00,
2013-03-20 15:51:00,39.2,19.6,31.63,SW,225,11.0,11.0,45,0.00,,,0.00,meteohub,2013-03-20 21:51:00,
2013-03-20 15:56:00,38.8,20.3,31.64,SW,225,8.0,11.0,47,0.00,,,0.00,meteohub,2013-03-20 21:56:00,
2013-03-20 16:02:00,38.8,20.3,31.63,SW,225,13.0,13.0,47,0.00,,,0.00,meteohub,2013-03-20 22:02:00,
2013-03-20 16:07:00,38.8,20.3,31.63,SW,225,13.0,13.0,47,0.00,,,0.00,meteohub,2013-03-20 22:07:00,
2013-03-20 16:12:00,37.9,19.9,31.63,South,180,4.0,13.0,48,0.00,,,0.00,meteohub,2013-03-20 22:12:00,
2013-03-20 16:17:00,37.9,19.9,31.63,WSW,248,1.0,13.0,48,0.00,,,0.00,meteohub,2013-03-20 22:17:00,
2013-03-20 16:22:00,37.9,20.5,31.63,West,270,5.0,13.0,49,0.00,,,0.00,meteohub,2013-03-20 22:22:00,
2013-03-20 16:27:00,37.9,20.5,31.63,West,270,2.0,6.0,49,0.00,,,0.00,meteohub,2013-03-20 22:27:00,
2013-03-20 16:33:00,37.8,19.8,31.63,North,0,1.0,6.0,48,0.00,,,0.00,meteohub,2013-03-20 22:33:00,
2013-03-20 16:38:00,37.9,19.9,31.62,NE,45,2.0,6.0,48,0.00,,,0.00,meteohub,2013-03-20 22:38:00,
2013-03-20 16:44:00,37.8,20.3,31.63,West,270,3.0,6.0,49,0.00,,,0.00,meteohub,2013-03-20 22:44:00,
2013-03-20 16:49:00,37.4,20.5,31.63,NW,315,2.0,4.0,50,0.00,,,0.00,meteohub,2013-03-20 22:49:00,
2013-03-20 16:55:00,37.0,18.7,31.63,SW,225,3.0,3.0,47,0.00,,,0.00,meteohub,2013-03-20 22:55:00,
2013-03-20 17:00:00,37.0,19.6,31.62,East,90,2.0,4.0,49,0.00,,,0.00,meteohub,2013-03-20 23:00:00,
2013-03-20 17:05:00,36.7,20.3,31.63,South,180,5.0,5.0,51,0.00,,,0.00,meteohub,2013-03-20 23:05:00,
2013-03-20 17:11:00,36.1,20.3,31.62,SW,225,1.0,5.0,52,0.00,,,0.00,meteohub,2013-03-20 23:11:00,
2013-03-20 17:16:00,36.0,20.1,31.62,South,180,2.0,5.0,52,0.00,,,0.00,meteohub,2013-03-20 23:16:00,
2013-03-20 17:22:00,35.8,20.3,31.62,SW,225,5.0,5.0,53,0.00,,,0.00,meteohub,2013-03-20 23:22:00,
2013-03-20 17:27:00,35.4,20.8,31.62,East,90,3.0,8.0,55,0.00,,,0.00,meteohub,2013-03-20 23:27:00,
2013-03-20 17:32:00,35.1,21.0,31.62,West,270,3.0,8.0,56,0.00,,,0.00,meteohub,2013-03-20 23:32:00,
2013-03-20 17:37:00,34.7,20.7,31.63,West,270,2.0,8.0,56,0.00,,,0.00,meteohub,2013-03-20 23:37:00,
2013-03-20 17:42:00,34.3,20.7,31.63,West,270,3.0,4.0,57,0.00,,,0.00,meteohub,2013-03-20 23:42:00,
2013-03-20 17:48:00,34.2,20.8,31.62,SW,225,3.0,4.0,58,0.00,,,0.00,meteohub,2013-03-20 23:48:00,
2013-03-20 17:53:00,34.0,20.8,31.62,NW,315,4.0,4.0,58,0.00,,,0.00,meteohub,2013-03-20 23:53:00,
2013-03-20 17:59:00,33.8,20.7,31.62,North,0,0.0,6.0,58,0.00,,,0.00,meteohub,2013-03-20 23:59:00,
2013-03-20 18:05:00,33.8,20.7,31.62,North,0,0.0,6.0,58,0.00,,,0.00,meteohub,2013-03-21 00:05:00,
2013-03-20 18:10:00,33.4,20.7,31.62,SE,135,2.0,2.0,59,0.00,,,0.00,meteohub,2013-03-21 00:10:00,
2013-03-20 18:16:00,33.3,20.5,31.62,SE,135,2.0,2.0,59,0.00,,,0.00,meteohub,2013-03-21 00:16:00,
2013-03-20 18:21:00,33.1,20.7,31.62,SE,135,1.0,2.0,60,0.00,,,0.00,meteohub,2013-03-21 00:21:00,
2013-03-20 18:27:00,33.1,21.0,31.62,SE,135,2.0,3.0,61,0.00,,,0.00,meteohub,2013-03-21 00:27:00,
2013-03-20 18:32:00,32.9,20.8,31.62,SE,135,3.0,3.0,61,0.00,,,0.00,meteohub,2013-03-21 00:32:00,
2013-03-20 18:37:00,32.9,21.4,31.62,SE,135,2.0,3.0,62,0.00,,,0.00,meteohub,2013-03-21 00:37:00,
2013-03-20 18:42:00,32.7,21.6,31.61,East,90,2.0,3.0,63,0.00,,,0.00,meteohub,2013-03-21 00:42:00,
2013-03-20 18:48:00,32.5,21.7,31.61,East,90,0.0,3.0,64,0.00,,,0.00,meteohub,2013-03-21 00:48:00,
2013-03-20 18:54:00,32.4,21.6,31.61,East,90,2.0,3.0,64,0.00,,,0.00,meteohub,2013-03-21 00:54:00,
2013-03-20 19:00:00,32.2,21.4,31.61,SE,135,2.0,3.0,64,0.00,,,0.00,meteohub,2013-03-21 01:00:00,
2013-03-20 19:05:00,32.0,21.2,31.61,NE,45,1.0,4.0,64,0.00,,,0.00,meteohub,2013-03-21 01:05:00,
2013-03-20 19:11:00,31.6,21.2,31.61,East,90,1.0,4.0,65,0.00,,,0.00,meteohub,2013-03-21 01:11:00,
2013-03-20 19:16:00,31.3,20.8,31.61,East,90,1.0,2.0,65,0.00,,,0.00,meteohub,2013-03-21 01:16:00,
2013-03-20 19:21:00,31.3,20.8,31.61,East,90,2.0,2.0,65,0.00,,,0.00,meteohub,2013-03-21 01:21:00,
2013-03-20 19:27:00,31.1,20.7,31.61,SE,135,0.0,3.0,65,0.00,,,0.00,meteohub,2013-03-21 01:27:00,
2013-03-20 19:32:00,30.9,20.5,31.61,East,90,2.0,3.0,65,0.00,,,0.00,meteohub,2013-03-21 01:32:00,
2013-03-20 19:37:00,30.9,20.8,31.61,SW,225,0.0,3.0,66,0.00,,,0.00,meteohub,2013-03-21 01:37:00,
2013-03-20 19:42:00,30.7,20.7,31.60,NE,45,0.0,2.0,66,0.00,,,0.00,meteohub,2013-03-21 01:42:00,
2013-03-20 19:48:00,30.6,20.1,31.61,NE,45,0.0,2.0,65,0.00,,,0.00,meteohub,2013-03-21 01:48:00,
2013-03-20 19:54:00,30.6,20.1,31.60,NE,45,2.0,2.0,65,0.00,,,0.00,meteohub,2013-03-21 01:54:00,
2013-03-20 20:00:00,30.4,19.9,31.60,NE,45,0.0,2.0,65,0.00,,,0.00,meteohub,2013-03-21 02:00:00,
2013-03-20 20:06:00,30.4,19.9,31.60,NE,45,0.0,2.0,65,0.00,,,0.00,meteohub,2013-03-21 02:06:00,
2013-03-20 20:11:00,30.0,20.1,31.61,NE,45,2.0,3.0,66,0.00,,,0.00,meteohub,2013-03-21 02:11:00,
2013-03-20 20:16:00,29.8,20.3,31.60,North,0,2.0,4.0,67,0.00,,,0.00,meteohub,2013-03-21 02:16:00,
2013-03-20 20:21:00,29.7,20.1,31.60,NE,45,4.0,4.0,67,0.00,,,0.00,meteohub,2013-03-21 02:21:00,
2013-03-20 20:27:00,29.5,19.9,31.61,West,270,2.0,4.0,67,0.00,,,0.00,meteohub,2013-03-21 02:27:00,
2013-03-20 20:32:00,29.3,19.8,31.60,NE,45,0.0,4.0,67,0.00,,,0.00,meteohub,2013-03-21 02:32:00,
2013-03-20 20:37:00,29.3,19.8,31.60,East,90,0.0,4.0,67,0.00,,,0.00,meteohub,2013-03-21 02:37:00,
2013-03-20 20:42:00,29.1,19.6,31.60,West,270,2.0,2.0,67,0.00,,,0.00,meteohub,2013-03-21 02:42:00,
2013-03-20 20:47:00,28.9,19.4,31.60,East,90,0.0,2.0,67,0.00,,,0.00,meteohub,2013-03-21 02:47:00,
2013-03-20 20:52:00,28.6,19.0,31.60,North,0,0.0,2.0,67,0.00,,,0.00,meteohub,2013-03-21 02:52:00,
2013-03-20 20:58:00,28.4,18.9,31.60,North,0,0.0,2.0,67,0.00,,,0.00,meteohub,2013-03-21 02:58:00,
2013-03-20 21:03:00,28.2,17.2,31.60,North,0,0.0,1.0,63,0.00,,,0.00,meteohub,2013-03-21 03:03:00,
2013-03-20 21:09:00,28.0,17.1,31.60,West,270,0.0,1.0,63,0.00,,,0.00,meteohub,2013-03-21 03:09:00,
2013-03-20 21:14:00,28.0,17.4,31.60,West,270,0.0,0.0,64,0.00,,,0.00,meteohub,2013-03-21 03:14:00,
2013-03-20 21:20:00,28.0,17.4,31.60,SW,225,0.0,0.0,64,0.00,,,0.00,meteohub,2013-03-21 03:20:00,
2013-03-20 21:25:00,27.9,17.2,31.60,SW,225,0.0,0.0,64,0.00,,,0.00,meteohub,2013-03-21 03:25:00,
2013-03-20 21:31:00,27.9,17.2,31.60,SW,225,0.0,0.0,64,0.00,,,0.00,meteohub,2013-03-21 03:31:00,
2013-03-20 21:36:00,27.9,17.2,31.60,SW,225,0.0,0.0,64,0.00,,,0.00,meteohub,2013-03-21 03:36:00,
2013-03-20 21:42:00,27.7,17.4,31.59,SW,225,0.0,0.0,65,0.00,,,0.00,meteohub,2013-03-21 03:42:00,
2013-03-20 21:47:00,27.7,17.4,31.60,SW,225,0.0,0.0,65,0.00,,,0.00,meteohub,2013-03-21 03:47:00,
2013-03-20 21:52:00,27.7,17.4,31.59,West,270,0.0,0.0,65,0.00,,,0.00,meteohub,2013-03-21 03:52:00,
2013-03-20 21:58:00,27.9,18.0,31.59,West,270,0.0,0.0,66,0.00,,,0.00,meteohub,2013-03-21 03:58:00,
2013-03-20 22:00:00,27.9,18.0,31.59,West,270,0.0,0.0,66,0.00,,,0.00,meteohub,2013-03-21 04:00:00,
2013-03-20 22:02:00,27.9,18.0,31.60,West,270,0.0,0.0,66,0.00,,,0.00,meteohub,2013-03-21 04:02:00,
2013-03-20 22:03:00,27.9,18.0,31.59,West,270,0.0,0.0,66,0.00,,,0.00,meteohub,2013-03-21 04:03:00,
2013-03-20 22:08:00,28.0,18.1,31.60,SW,225,0.0,0.0,66,0.00,,,0.00,meteohub,2013-03-21 04:08:00,
2013-03-20 22:13:00,28.0,18.1,31.59,SW,225,0.0,0.0,66,0.00,,,0.00,meteohub,2013-03-21 04:13:00,
2013-03-20 22:19:00,28.0,18.5,31.59,West,270,3.0,0.0,67,0.00,,,0.00,meteohub,2013-03-21 04:19:00,
2013-03-20 22:25:00,28.4,19.9,31.59,West,270,0.0,0.0,70,0.00,,,0.00,meteohub,2013-03-21 04:25:00,
2013-03-20 22:30:00,28.4,19.9,31.59,South,180,0.0,3.0,70,0.00,,,0.00,meteohub,2013-03-21 04:30:00,
2013-03-20 22:35:00,28.2,18.0,31.59,South,180,0.0,2.0,65,0.00,,,0.00,meteohub,2013-03-21 04:35:00,
2013-03-20 22:41:00,28.2,18.0,31.59,NW,315,0.0,4.0,65,0.00,,,0.00,meteohub,2013-03-21 04:41:00,
2013-03-20 22:47:00,28.2,18.0,31.59,SW,225,0.0,4.0,65,0.00,,,0.00,meteohub,2013-03-21 04:47:00,
2013-03-20 22:52:00,28.0,17.8,31.59,SW,225,0.0,4.0,65,0.00,,,0.00,meteohub,2013-03-21 04:52:00,
2013-03-20 22:57:00,28.2,18.3,31.59,West,270,0.0,0.0,66,0.00,,,0.00,meteohub,2013-03-21 04:57:00,
2013-03-20 23:03:00,28.0,18.1,31.58,South,180,0.0,0.0,66,0.00,,,0.00,meteohub,2013-03-21 05:03:00,
2013-03-20 23:08:00,28.0,18.1,31.58,South,180,0.0,0.0,66,0.00,,,0.00,meteohub,2013-03-21 05:08:00,
2013-03-20 23:14:00,28.0,18.1,31.58,South,180,0.0,0.0,66,0.00,,,0.00,meteohub,2013-03-21 05:14:00,
2013-03-20 23:20:00,27.9,18.0,31.58,South,180,0.0,0.0,66,0.00,,,0.00,meteohub,2013-03-21 05:20:00,
2013-03-20 23:25:00,27.9,18.0,31.58,South,180,0.0,0.0,66,0.00,,,0.00,meteohub,2013-03-21 05:25:00,
2013-03-20 23:31:00,27.7,17.8,31.57,South,180,0.0,0.0,66,0.00,,,0.00,meteohub,2013-03-21 05:31:00,
2013-03-20 23:37:00,27.7,17.8,31.57,South,180,0.0,0.0,66,0.00,,,0.00,meteohub,2013-03-21 05:37:00,
2013-03-20 23:42:00,27.7,18.1,31.57,South,180,0.0,0.0,67,0.00,,,0.00,meteohub,2013-03-21 05:42:00,
2013-03-20 23:47:00,27.7,17.8,31.56,South,180,0.0,0.0,66,0.00,,,0.00,meteohub,2013-03-21 05:47:00,
2013-03-20 23:52:00,27.7,17.8,31.57,West,270,0.0,0.0,66,0.00,,,0.00,meteohub,2013-03-21 05:52:00,
2013-03-20 23:57:00,27.5,17.6,31.57,West,270,0.0,0.0,66,0.00,,,0.00,meteohub,2013-03-21 05:57:00,